createdAt,value
2022-08-11T00:00:43.549Z,62.25
2022-08-11T00:01:43.542Z,62.45
2022-08-11T00:02:43.630Z,62.28
2022-08-11T00:03:44.034Z,61.85
2022-08-11T00:04:43.549Z,62.95
2022-08-11T00:05:43.555Z,61.48
2022-08-11T00:06:43.560Z,62.58
2022-08-11T00:07:43.563Z,62.38
2022-08-11T00:08:43.567Z,63.18
2022-08-11T00:09:43.576Z,63.28
2022-08-11T00:10:43.570Z,62.38
2022-08-11T00:11:43.616Z,62.78
2022-08-11T00:12:43.576Z,60.78
2022-08-11T00:13:43.595Z,63.08
2022-08-11T00:14:43.584Z,62.81
2022-08-11T00:15:43.590Z,62.92
2022-08-11T00:16:43.591Z,62.88
2022-08-11T00:17:43.595Z,63.11
2022-08-11T00:18:43.595Z,62.92
2022-08-11T00:20:15.435Z,63.81
2022-08-11T00:20:43.602Z,62.21
2022-08-11T00:22:02.867Z,65.01
2022-08-11T00:22:43.608Z,63.75
2022-08-11T00:23:43.613Z,65.15
2022-08-11T00:24:54.793Z,64.95
2022-08-11T00:25:43.625Z,63.95
2022-08-11T00:26:43.621Z,63.54
2022-08-11T00:27:43.643Z,63.45
2022-08-11T00:28:43.629Z,63.28
2022-08-11T00:29:51.638Z,63.98
2022-08-11T00:30:43.634Z,64.68
2022-08-11T00:31:43.639Z,65.68
2022-08-11T00:32:43.640Z,64.48
2022-08-11T00:33:44.737Z,65.28
2022-08-11T00:34:43.646Z,64.91
2022-08-11T00:35:54.594Z,65.71
2022-08-11T00:36:43.656Z,65.21
2022-08-11T00:37:43.680Z,65.01
2022-08-11T00:38:43.674Z,65.61
2022-08-11T00:39:43.723Z,66.11
2022-08-11T00:40:43.668Z,65.11
2022-08-11T00:41:43.668Z,65.31
2022-08-11T00:42:43.673Z,65.44
2022-08-11T00:43:43.675Z,66.85
2022-08-11T00:44:43.683Z,65.94
2022-08-11T00:45:43.683Z,67.05
2022-08-11T00:46:43.679Z,65.24
2022-08-11T00:47:43.684Z,65.67
2022-08-11T00:48:43.687Z,66.98
2022-08-11T00:49:43.701Z,67.01
2022-08-11T00:50:43.696Z,67.01
2022-08-11T00:51:59.678Z,67.11
2022-08-11T00:52:43.703Z,67.21
2022-08-11T00:53:43.710Z,67.51
2022-08-11T00:54:43.700Z,66.11
2022-08-11T00:55:47.297Z,67.61
2022-08-11T00:56:43.708Z,68.52
2022-08-11T00:57:43.710Z,67.51
2022-08-11T00:58:43.713Z,67.55
2022-08-11T00:59:43.715Z,67.41
2022-08-11T01:00:43.778Z,67.24
2022-08-11T01:01:43.722Z,68.15
2022-08-11T01:02:43.731Z,68.95
2022-08-11T01:03:43.727Z,68.65
2022-08-11T01:04:43.736Z,68.75
2022-08-11T01:05:43.734Z,67.74
2022-08-11T01:06:43.736Z,67.35
2022-08-11T01:08:01.189Z,68.25
2022-08-11T01:08:43.742Z,68.85
2022-08-11T01:09:43.742Z,67.35
2022-08-11T01:10:43.745Z,68.85
2022-08-11T01:11:56.013Z,67.94
2022-08-11T01:12:43.752Z,69.06
2022-08-11T01:13:43.755Z,68.95
2022-08-11T01:14:43.760Z,68.55
2022-08-11T01:15:43.754Z,69.35
2022-08-11T01:16:43.763Z,68.45
2022-08-11T01:17:43.762Z,69.29
2022-08-11T01:18:43.764Z,67.14
2022-08-11T01:20:45.044Z,68.45
2022-08-11T01:20:48.703Z,67.14
2022-08-11T01:21:43.771Z,68.78
2022-08-11T01:22:43.773Z,67.38
2022-08-11T01:23:43.775Z,68.48
2022-08-11T01:24:43.783Z,68.59
2022-08-11T01:25:57.245Z,68.98
2022-08-11T01:26:43.785Z,67.18
2022-08-11T01:27:43.785Z,68.71
2022-08-11T01:28:43.787Z,68.48
2022-08-11T01:29:49.197Z,69.22
2022-08-11T01:30:43.793Z,69.12
2022-08-11T01:31:43.799Z,68.78
2022-08-11T01:32:43.801Z,69.29
2022-08-11T01:33:43.800Z,69.32
2022-08-11T01:34:43.800Z,68.21
2022-08-11T01:35:43.804Z,69.62
2022-08-11T01:36:43.807Z,69.42
2022-08-11T01:37:43.808Z,68.51
2022-08-11T01:38:43.811Z,69.29
2022-08-11T01:39:43.840Z,69.52
2022-08-11T01:40:43.814Z,67.98
2022-08-11T01:41:43.820Z,67.98
2022-08-11T01:42:43.824Z,67.78
2022-08-11T01:43:43.821Z,68.78
2022-08-11T01:44:43.829Z,68.78
2022-08-11T01:45:43.824Z,68.38
2022-08-11T01:46:43.832Z,68.48
2022-08-11T01:47:52.942Z,68.65
2022-08-11T01:48:43.831Z,68.55
2022-08-11T01:50:10.042Z,68.45
2022-08-11T01:50:43.840Z,67.94
2022-08-11T01:51:45.336Z,66.84
2022-08-11T01:52:44.141Z,67.14
2022-08-11T01:53:43.849Z,66.64
2022-08-11T01:54:43.848Z,66.24
2022-08-11T01:55:43.854Z,66.24
2022-08-11T01:56:43.853Z,65.33
2022-08-11T01:57:43.852Z,65.94
2022-08-11T01:58:44.501Z,66.34
2022-08-11T01:59:43.860Z,67.35
2022-08-11T02:00:43.923Z,66.94
2022-08-11T02:01:43.863Z,67.47
2022-08-11T02:02:43.864Z,67.38
2022-08-11T02:03:43.874Z,67.18
2022-08-11T02:04:43.875Z,67.07
2022-08-11T02:05:43.871Z,67.68
2022-08-11T02:06:43.882Z,66.57
2022-08-11T02:07:43.876Z,68.28
2022-08-11T02:08:44.795Z,67.51
2022-08-11T02:09:49.465Z,67.71
2022-08-11T02:10:50.339Z,68.41
2022-08-11T02:11:43.886Z,67.91
2022-08-11T02:12:51.211Z,67.71
2022-08-11T02:13:44.719Z,66.80
2022-08-11T02:15:04.605Z,68.01
2022-08-11T02:15:43.897Z,68.59
2022-08-11T02:16:43.896Z,67.98
2022-08-11T02:17:44.399Z,67.68
2022-08-11T02:18:43.898Z,67.41
2022-08-11T02:19:44.233Z,67.21
2022-08-11T02:20:43.904Z,66.17
2022-08-11T02:21:43.908Z,66.20
2022-08-11T02:22:43.910Z,68.51
2022-08-11T02:24:06.029Z,66.91
2022-08-11T02:24:43.912Z,67.00
2022-08-11T02:25:43.915Z,68.21
2022-08-11T04:03:31.160Z,76.05
2022-08-11T04:04:27.821Z,76.66
2022-08-11T04:05:27.824Z,76.26
2022-08-11T04:06:27.829Z,75.85
2022-08-11T04:07:27.826Z,76.46
2022-08-11T04:08:33.905Z,75.75
2022-08-11T04:09:27.829Z,76.15
2022-08-11T04:10:27.828Z,76.52
2022-08-11T04:11:27.831Z,75.51
2022-08-11T04:12:36.652Z,74.30
2022-08-11T04:13:27.836Z,73.59
2022-08-11T04:14:27.832Z,73.79
2022-08-11T04:15:27.834Z,73.19
2022-08-11T04:16:27.839Z,74.33
2022-08-11T04:17:27.839Z,74.23
2022-08-11T04:18:27.842Z,74.37
2022-08-11T04:19:27.843Z,75.38
2022-08-11T04:20:27.844Z,74.67
2022-08-11T04:21:27.842Z,75.68
2022-08-11T04:22:27.916Z,75.58
2022-08-11T04:24:33.408Z,76.90
2022-08-11T04:24:37.237Z,76.90
2022-08-11T04:25:27.846Z,76.59
2022-08-11T04:26:27.854Z,76.90
2022-08-11T04:27:36.962Z,76.59
2022-08-11T04:28:28.708Z,77.20
2022-08-11T04:29:35.989Z,77.00
2022-08-11T04:30:27.856Z,75.48
2022-08-11T04:31:51.363Z,76.29
2022-08-11T04:32:27.859Z,76.79
2022-08-11T04:33:27.855Z,76.09
2022-08-11T04:34:27.863Z,76.19
2022-08-11T04:35:27.861Z,76.32
2022-08-11T04:36:27.859Z,76.63
2022-08-11T04:37:27.861Z,76.93
2022-08-11T04:38:27.862Z,77.64
2022-08-11T04:39:27.918Z,77.40
2022-08-11T04:40:27.873Z,77.61
2022-08-11T04:41:27.869Z,77.71
2022-08-11T04:42:31.540Z,78.45
2022-08-11T04:43:27.867Z,78.25
2022-08-11T04:44:27.868Z,78.11
2022-08-11T04:45:27.869Z,77.71
2022-08-11T04:46:27.869Z,77.71
2022-08-11T04:47:27.870Z,77.50
2022-08-11T04:48:27.875Z,77.71
2022-08-11T04:49:34.036Z,77.20
2022-08-11T04:50:27.879Z,77.71
2022-08-11T04:51:27.875Z,77.61
2022-08-11T04:52:37.626Z,77.40
2022-08-11T04:53:27.879Z,78.17
2022-08-11T04:54:28.846Z,77.81
2022-08-11T04:55:27.881Z,77.47
2022-08-11T04:56:27.890Z,77.50
2022-08-11T04:57:27.880Z,77.77
2022-08-11T04:58:29.425Z,78.72
2022-08-11T04:59:27.901Z,78.17
2022-08-11T05:00:27.888Z,78.62
2022-08-11T05:01:27.952Z,79.22
2022-08-11T05:02:27.979Z,78.92
2022-08-11T05:03:27.888Z,79.59
2022-08-11T05:04:27.891Z,79.29
2022-08-11T05:05:27.888Z,79.39
2022-08-11T05:06:27.900Z,79.29
2022-08-11T05:07:27.893Z,79.69
2022-08-11T05:08:27.892Z,79.69
2022-08-11T05:09:27.896Z,79.49
2022-08-11T05:10:27.919Z,79.55
2022-08-11T05:11:27.897Z,79.75
2022-08-11T05:12:28.034Z,79.35
2022-08-11T05:13:27.901Z,79.55
2022-08-11T05:14:27.898Z,79.96
2022-08-11T05:15:27.898Z,79.92
2022-08-11T05:16:27.903Z,79.41
2022-08-11T05:17:27.901Z,79.62
2022-08-11T05:18:27.904Z,78.71
2022-08-11T05:19:27.902Z,78.91
2022-08-11T05:20:27.904Z,78.97
2022-08-11T05:21:27.904Z,79.11
2022-08-11T05:22:27.969Z,79.48
2022-08-11T05:23:27.906Z,79.48
2022-08-11T05:24:27.948Z,78.37
2022-08-11T05:26:42.986Z,79.08
2022-08-11T05:26:47.178Z,79.38
2022-08-11T05:27:27.920Z,79.24
2022-08-11T05:28:27.913Z,78.03
2022-08-11T05:29:27.914Z,77.83
2022-08-11T05:30:27.916Z,77.93
2022-08-11T05:31:27.913Z,77.49
2022-08-11T05:32:27.961Z,77.42
2022-08-11T05:33:27.919Z,77.73
2022-08-11T05:34:27.921Z,77.28
2022-08-11T05:35:59.776Z,77.49
2022-08-11T05:36:27.923Z,77.08
2022-08-11T05:37:27.993Z,76.18
2022-08-11T05:38:27.931Z,76.34
2022-08-11T05:39:36.331Z,77.45
2022-08-11T05:40:27.925Z,78.06
2022-08-11T05:41:27.926Z,77.95
2022-08-11T05:42:30.486Z,77.86
2022-08-11T05:43:27.926Z,77.86
2022-08-11T05:44:27.931Z,77.82
2022-08-11T05:45:27.928Z,77.04
2022-08-11T05:46:27.932Z,77.01
2022-08-11T05:47:27.938Z,76.81
2022-08-11T05:48:27.945Z,76.71
2022-08-11T05:49:27.949Z,77.11
2022-08-11T05:50:31.184Z,76.77
2022-08-11T05:51:30.190Z,76.67
2022-08-11T05:52:32.040Z,76.61
2022-08-11T05:53:27.940Z,76.77
2022-08-11T05:54:29.538Z,76.77
2022-08-11T05:55:27.943Z,76.97
2022-08-11T05:56:27.944Z,76.34
2022-08-11T05:57:49.074Z,75.67
2022-08-11T05:58:27.986Z,75.33
2022-08-11T05:59:27.948Z,75.53
2022-08-11T06:00:27.964Z,76.34
2022-08-11T06:01:28.011Z,76.43
2022-08-11T06:02:27.961Z,75.63
2022-08-11T06:03:27.955Z,75.33
2022-08-11T06:04:27.952Z,74.69
2022-08-11T06:05:27.953Z,74.69
2022-08-11T06:06:27.956Z,75.70
2022-08-11T06:07:27.957Z,75.79
2022-08-11T06:08:27.961Z,75.90
2022-08-11T06:09:27.958Z,76.40
2022-08-11T06:10:27.962Z,76.50
2022-08-11T06:11:44.444Z,76.10
2022-08-11T06:12:27.969Z,76.46
2022-08-11T06:13:27.966Z,76.70
2022-08-11T06:14:27.974Z,76.80
2022-08-11T06:15:27.969Z,76.67
2022-08-11T06:16:27.975Z,76.67
2022-08-11T06:17:38.802Z,76.46
2022-08-11T06:18:27.980Z,76.26
2022-08-11T06:19:27.972Z,76.76
2022-08-11T06:20:27.986Z,76.67
2022-08-11T06:21:27.974Z,76.26
2022-08-11T06:22:28.050Z,75.46
2022-08-11T06:23:27.980Z,74.21
2022-08-11T06:24:27.980Z,73.41
2022-08-11T06:25:27.983Z,73.51
2022-08-11T06:26:27.989Z,74.21
2022-08-11T06:27:27.985Z,74.41
2022-08-11T06:28:27.987Z,75.32
2022-08-11T06:29:37.965Z,75.52
2022-08-11T06:30:27.999Z,75.38
2022-08-11T06:31:27.990Z,75.32
2022-08-11T06:32:27.992Z,75.79
2022-08-11T06:33:27.995Z,75.29
2022-08-11T06:34:27.995Z,75.62
2022-08-11T06:35:27.994Z,75.92
2022-08-11T06:36:28.009Z,75.59
2022-08-11T06:37:28.003Z,75.29
2022-08-11T06:38:28.004Z,74.98
2022-08-11T06:39:28.121Z,74.58
2022-08-11T06:40:28.006Z,74.48
2022-08-11T06:41:28.006Z,74.48
2022-08-11T06:42:28.130Z,74.48
2022-08-11T06:43:28.012Z,74.48
2022-08-11T06:44:28.012Z,74.58
2022-08-11T06:45:28.011Z,74.88
2022-08-11T06:46:28.430Z,74.44
2022-08-11T06:47:28.019Z,74.78
2022-08-11T06:48:28.020Z,74.74
2022-08-11T06:49:28.018Z,74.65
2022-08-11T06:50:28.031Z,74.65
2022-08-11T06:51:28.021Z,74.44
2022-08-11T06:52:34.974Z,74.15
2022-08-11T06:53:28.026Z,74.44
2022-08-11T06:54:28.026Z,73.94
2022-08-11T06:55:57.535Z,73.61
2022-08-11T06:56:28.035Z,73.91
2022-08-11T06:57:30.718Z,74.61
2022-08-11T06:58:28.044Z,74.48
2022-08-11T06:59:28.040Z,74.77
2022-08-11T07:00:28.073Z,74.37
2022-08-11T07:01:28.119Z,74.57
2022-08-11T07:02:31.236Z,74.57
2022-08-11T07:03:28.044Z,75.38
2022-08-11T07:04:28.058Z,74.57
2022-08-11T07:05:28.047Z,73.57
2022-08-11T07:06:28.049Z,73.87
2022-08-11T07:07:28.051Z,74.44
2022-08-11T07:08:34.641Z,74.94
2022-08-11T07:09:28.061Z,74.94
2022-08-11T07:10:28.059Z,74.54
2022-08-11T07:11:28.059Z,74.74
2022-08-11T07:12:28.069Z,74.64
2022-08-11T07:13:44.263Z,74.80
2022-08-11T07:14:28.071Z,74.80
2022-08-11T07:16:11.498Z,74.90
2022-08-11T07:16:28.074Z,73.40
2022-08-11T07:17:28.075Z,72.40
2022-08-11T07:18:28.426Z,71.39
2022-08-11T07:19:28.082Z,70.59
2022-08-11T07:20:28.082Z,71.66
2022-08-11T07:22:00.508Z,72.27
2022-08-11T07:22:28.094Z,72.47
2022-08-11T07:23:28.094Z,72.36
2022-08-11T07:24:34.556Z,73.86
2022-08-11T07:25:28.095Z,74.17
2022-08-11T07:26:28.098Z,73.93
2022-08-11T07:27:30.272Z,74.43
2022-08-11T07:28:28.154Z,74.54
2022-08-11T07:29:28.102Z,73.03
2022-08-11T07:30:28.104Z,72.33
2022-08-11T07:31:29.180Z,72.63
2022-08-11T07:32:28.106Z,71.63
2022-08-11T07:34:06.954Z,72.23
2022-08-11T07:34:28.181Z,71.12
2022-08-11T07:35:28.110Z,71.89
2022-08-11T07:36:28.378Z,72.39
2022-08-11T07:37:28.117Z,71.39
2022-08-11T07:38:28.119Z,71.69
2022-08-11T07:39:28.183Z,71.46
2022-08-11T07:40:28.128Z,71.56
2022-08-11T07:41:28.131Z,71.56
2022-08-11T07:42:28.136Z,72.16
2022-08-11T07:43:28.138Z,71.76
2022-08-11T07:44:33.738Z,70.86
2022-08-11T07:45:28.150Z,69.62
2022-08-11T07:46:28.144Z,69.93
2022-08-11T07:47:28.141Z,70.43
2022-08-11T07:48:28.151Z,68.29
2022-08-11T07:49:28.148Z,69.79
2022-08-11T07:50:28.159Z,67.29
2022-08-11T07:51:28.154Z,65.39
2022-08-11T07:52:28.157Z,65.89
2022-08-11T07:53:28.164Z,64.56
2022-08-11T07:54:28.193Z,65.96
2022-08-11T07:55:49.066Z,64.63
2022-08-11T07:56:38.605Z,64.83
2022-08-11T07:58:13.648Z,64.73
2022-08-11T07:58:28.174Z,67.10
2022-08-11T08:00:03.598Z,64.80
2022-08-11T08:00:29.834Z,65.00
2022-08-11T08:01:28.213Z,65.56
2022-08-11T08:02:35.435Z,64.87
2022-08-11T08:03:28.189Z,61.38
2022-08-11T08:04:28.196Z,63.37
2022-08-11T08:05:28.197Z,63.17
2022-08-11T08:06:36.125Z,63.74
2022-08-11T08:07:28.202Z,63.04
2022-08-11T08:08:28.209Z,61.11
2022-08-11T08:09:28.212Z,59.72
2022-08-11T08:10:28.312Z,59.99
2022-08-11T08:11:28.215Z,59.69
2022-08-11T08:12:28.223Z,61.36
2022-08-11T08:13:28.224Z,58.57
2022-08-11T08:14:28.227Z,60.16
2022-08-11T08:15:28.228Z,60.83
2022-08-11T08:16:28.236Z,62.42
2022-08-11T08:17:28.240Z,61.03
2022-08-11T08:18:28.790Z,62.42
2022-08-11T08:19:28.243Z,59.04
2022-08-11T08:20:28.248Z,58.71
2022-08-11T08:21:28.255Z,59.51
2022-08-11T08:22:39.050Z,58.88
2022-08-11T08:23:28.262Z,59.68
2022-08-11T08:24:28.262Z,60.27
2022-08-11T08:25:28.278Z,59.08
2022-08-11T08:26:28.275Z,60.27
2022-08-11T08:27:28.343Z,59.18
2022-08-11T08:28:32.320Z,58.56
2022-08-11T08:29:28.292Z,58.06
2022-08-11T08:30:28.291Z,59.25
2022-08-11T08:31:28.309Z,60.74
2022-08-11T08:32:28.352Z,58.06
2022-08-11T08:33:28.306Z,56.67
2022-08-11T08:34:28.311Z,58.73
2022-08-11T08:35:32.662Z,58.23
2022-08-11T08:36:28.322Z,57.60
2022-08-11T08:37:45.641Z,56.41
2022-08-11T08:38:28.334Z,56.71
2022-08-11T08:39:28.431Z,56.41
2022-08-11T08:40:28.355Z,57.78
2022-08-11T08:41:28.354Z,55.59
2022-08-11T08:42:28.435Z,56.09
2022-08-11T08:43:28.369Z,56.98
2022-08-11T08:44:38.225Z,55.19
2022-08-11T08:45:28.380Z,54.87
2022-08-11T08:46:28.388Z,56.46
2022-08-11T08:47:41.775Z,56.34
2022-08-11T08:48:28.399Z,54.85
2022-08-11T08:49:28.412Z,56.34
2022-08-11T08:50:28.414Z,57.92
2022-08-11T08:51:28.424Z,57.62
2022-08-11T08:52:42.730Z,54.35
2022-08-11T08:53:28.434Z,52.47
2022-08-11T08:54:28.443Z,52.66
2022-08-11T08:55:28.447Z,51.47
2022-08-11T08:56:28.567Z,52.96
2022-08-11T08:57:28.521Z,53.92
2022-08-11T08:58:28.470Z,52.54
2022-08-11T08:59:47.433Z,53.73
2022-08-11T09:00:28.489Z,54.02
2022-08-11T09:01:28.580Z,53.11
2022-08-11T09:02:34.181Z,52.91
2022-08-11T09:04:04.807Z,53.11
2022-08-11T09:04:28.506Z,51.20
2022-08-11T09:05:28.513Z,52.39
2022-08-11T09:06:28.517Z,50.11
2022-08-11T09:07:32.622Z,50.60
2022-08-11T09:08:28.537Z,51.99
2022-08-11T09:09:28.542Z,51.89
2022-08-11T09:10:28.541Z,51.40
2022-08-11T09:11:28.551Z,52.59
2022-08-11T09:12:36.394Z,52.78
2022-08-11T09:13:28.561Z,52.49
2022-08-11T09:14:28.565Z,52.96
2022-08-11T09:15:28.577Z,50.51
2022-08-11T09:16:28.576Z,50.11
2022-08-11T09:17:28.583Z,51.40
2022-08-11T09:18:33.489Z,52.41
2022-08-11T09:19:28.593Z,52.41
2022-08-11T09:20:28.600Z,53.11
2022-08-11T09:21:46.474Z,52.22
2022-08-11T09:22:28.666Z,50.76
2022-08-11T09:24:28.620Z,53.23
2022-08-11T09:25:28.627Z,50.58
2022-08-11T09:26:30.801Z,51.97
2022-08-11T09:27:28.706Z,54.17
2022-08-11T09:28:28.643Z,54.87
2022-08-11T09:29:28.652Z,56.85
2022-08-11T09:30:28.653Z,54.17
2022-08-11T09:31:28.659Z,52.98
2022-08-11T09:32:28.666Z,53.98
2022-08-11T09:33:28.673Z,50.01
2022-08-11T09:34:28.672Z,50.21
2022-08-11T09:35:28.675Z,52.59
2022-08-11T09:36:28.682Z,52.98
2022-08-11T09:37:54.841Z,55.07
2022-08-11T09:38:28.695Z,52.69
2022-08-11T09:39:31.151Z,53.78
2022-08-11T09:40:28.705Z,53.11
2022-08-11T09:41:28.711Z,53.21
2022-08-11T09:42:28.712Z,51.23
2022-08-11T09:43:28.722Z,52.74
2022-08-11T09:44:28.725Z,52.72
2022-08-11T09:45:28.727Z,54.33
2022-08-11T09:46:28.737Z,56.32
2022-08-11T09:47:28.830Z,53.04
2022-08-11T09:48:28.747Z,52.04
2022-08-11T09:49:28.747Z,54.53
2022-08-11T09:50:28.753Z,55.19
2022-08-11T09:51:28.762Z,55.02
2022-08-11T09:52:28.762Z,53.33
2022-08-11T09:53:37.223Z,54.90
2022-08-11T09:54:28.773Z,52.14
2022-08-11T09:55:28.778Z,50.45
2022-08-11T09:56:28.783Z,52.74
2022-08-11T09:57:28.836Z,52.74
2022-08-11T09:58:41.807Z,51.45
2022-08-11T09:59:28.808Z,53.21
2022-08-11T10:00:28.817Z,54.03
2022-08-11T10:01:28.844Z,52.34
2022-08-11T10:02:28.824Z,52.04
2022-08-11T10:03:28.821Z,53.33
2022-08-11T10:04:28.824Z,53.23
2022-08-11T10:05:28.830Z,54.72
2022-08-11T10:06:34.231Z,54.06
2022-08-11T10:07:28.871Z,52.67
2022-08-11T10:08:28.840Z,53.26
2022-08-11T10:09:28.857Z,53.96
2022-08-11T10:10:28.849Z,55.15
2022-08-11T10:11:28.853Z,54.16
2022-08-11T10:12:28.860Z,53.06
2022-08-11T10:14:30.157Z,51.77
2022-08-11T10:14:34.497Z,54.35
2022-08-11T10:15:28.873Z,53.76
2022-08-11T10:16:28.875Z,53.86
2022-08-11T10:17:28.907Z,52.86
2022-08-11T10:18:28.883Z,55.25
2022-08-11T10:19:28.889Z,51.28
2022-08-11T10:20:28.894Z,54.82
2022-08-11T10:21:28.897Z,52.94
2022-08-11T10:22:28.905Z,51.95
2022-08-11T10:23:28.908Z,53.04
2022-08-11T10:24:28.915Z,49.63
2022-08-11T10:25:28.922Z,52.72
2022-08-11T10:26:28.923Z,51.52
2022-08-11T10:28:17.766Z,50.53
2022-08-11T10:28:44.680Z,54.30
2022-08-11T10:29:32.192Z,50.90
2022-08-11T10:30:28.942Z,52.29
2022-08-11T10:31:30.507Z,49.91
2022-08-11T10:32:31.443Z,50.68
2022-08-11T10:33:36.495Z,49.88
2022-08-11T10:34:29.268Z,51.15
2022-08-11T10:35:28.967Z,50.26
2022-08-11T10:36:28.969Z,51.35
2022-08-11T10:38:07.753Z,51.94
2022-08-11T10:38:28.979Z,51.15
2022-08-11T10:39:29.038Z,53.33
2022-08-11T10:40:28.989Z,51.94
2022-08-11T10:41:28.993Z,50.28
2022-08-11T10:42:47.737Z,49.69
2022-08-11T10:44:01.458Z,48.20
2022-08-11T10:44:29.008Z,48.40
2022-08-11T10:45:29.009Z,50.28
2022-08-11T10:46:30.261Z,51.28
2022-08-11T10:47:29.133Z,52.69
2022-08-11T10:48:29.036Z,52.09
2022-08-11T10:49:29.036Z,50.70
2022-08-11T10:50:29.038Z,49.21
2022-08-11T10:51:50.123Z,51.00
2022-08-11T10:52:29.137Z,50.90
2022-08-11T10:53:29.054Z,51.18
2022-08-11T10:54:29.053Z,50.09
2022-08-11T10:55:29.061Z,52.47
2022-08-11T10:56:29.061Z,49.07
2022-08-11T10:57:29.131Z,47.38
2022-08-11T10:58:29.074Z,48.18
2022-08-11T10:59:29.077Z,48.15
2022-08-11T11:00:29.085Z,47.86
2022-08-11T11:01:29.142Z,49.24
2022-08-11T11:02:29.090Z,50.26
2022-08-11T11:03:29.099Z,48.55
2022-08-11T11:04:29.101Z,45.90
2022-08-11T11:05:29.112Z,48.47
2022-08-11T11:06:29.974Z,50.93
2022-08-11T11:07:29.189Z,48.67
2022-08-11T11:08:29.118Z,46.69
2022-08-11T11:09:29.124Z,50.26
2022-08-11T11:10:29.127Z,49.46
2022-08-11T11:11:29.147Z,49.46
2022-08-11T11:12:29.188Z,48.77
2022-08-11T11:13:29.147Z,48.57
2022-08-11T11:14:29.149Z,48.87
2022-08-11T11:15:29.155Z,47.28
2022-08-11T11:16:29.163Z,49.07
2022-08-11T11:17:29.167Z,48.90
2022-08-11T11:18:29.176Z,48.99
2022-08-11T11:19:29.179Z,46.22
2022-08-11T11:20:35.929Z,43.82
2022-08-11T11:21:29.185Z,43.82
2022-08-11T11:22:29.216Z,45.08
2022-08-11T11:23:29.198Z,43.60
2022-08-11T11:24:29.197Z,43.60
2022-08-11T11:25:29.204Z,43.20
2022-08-11T11:26:29.208Z,44.78
2022-08-11T11:27:29.213Z,45.78
2022-08-11T11:28:29.216Z,48.65
2022-08-11T11:29:29.228Z,46.86
2022-08-11T11:30:29.229Z,45.78
2022-08-11T11:31:29.228Z,44.89
2022-08-11T11:32:29.323Z,45.57
2022-08-11T11:33:29.239Z,46.86
2022-08-11T11:34:29.249Z,44.59
2022-08-11T11:35:29.252Z,45.18
2022-08-11T11:36:29.253Z,47.56
2022-08-11T11:37:29.267Z,47.26
2022-08-11T11:38:29.263Z,42.01
2022-08-11T11:39:29.306Z,44.59
2022-08-11T11:40:31.630Z,47.06
2022-08-11T11:41:29.279Z,45.87
2022-08-11T11:42:29.295Z,44.01
2022-08-11T11:43:29.287Z,43.60
2022-08-11T11:44:29.299Z,42.58
2022-08-11T11:45:29.303Z,43.08
2022-08-11T11:46:30.283Z,42.38
2022-08-11T11:47:29.321Z,44.54
2022-08-11T11:48:29.312Z,42.07
2022-08-11T11:49:29.326Z,43.26
2022-08-11T11:50:31.560Z,42.86
2022-08-11T11:51:29.329Z,44.84
2022-08-11T11:52:29.362Z,47.02
2022-08-11T11:53:29.339Z,47.61
2022-08-11T11:54:29.342Z,46.52
2022-08-11T11:55:29.351Z,46.84
2022-08-11T11:56:29.349Z,46.77
2022-08-11T11:57:29.518Z,47.46
2022-08-11T11:58:29.358Z,46.07
2022-08-11T11:59:29.368Z,46.86
2022-08-11T12:00:32.963Z,46.39
2022-08-11T12:01:29.376Z,47.49
2022-08-11T12:02:29.379Z,46.59
2022-08-11T12:03:29.453Z,43.91
2022-08-11T12:04:29.388Z,43.02
2022-08-11T12:05:29.393Z,44.89
2022-08-11T12:06:29.399Z,45.48
2022-08-11T12:07:29.493Z,42.80
2022-08-11T12:08:29.406Z,45.08
2022-08-11T12:09:29.412Z,44.39
2022-08-11T12:10:29.415Z,45.87
2022-08-11T12:11:29.434Z,46.47
2022-08-11T12:12:29.426Z,47.36
2022-08-11T12:13:29.434Z,46.59
2022-08-11T12:14:29.435Z,47.19
2022-08-11T12:16:04.197Z,47.49
2022-08-11T12:16:35.624Z,47.58
2022-08-11T12:17:29.459Z,45.70
2022-08-11T12:18:29.456Z,45.10
2022-08-11T12:19:29.467Z,48.87
2022-08-11T12:20:30.937Z,48.38
2022-08-11T12:21:29.471Z,47.19
2022-08-11T12:22:29.500Z,46.09
2022-08-11T12:23:29.482Z,46.49
2022-08-11T12:24:29.807Z,46.79
2022-08-11T12:25:29.492Z,46.49
2022-08-11T12:26:29.497Z,48.47
2022-08-11T12:27:29.535Z,46.00
2022-08-11T12:28:29.505Z,46.79
2022-08-11T12:29:29.513Z,48.57
2022-08-11T12:30:29.639Z,49.66
2022-08-11T12:31:29.530Z,48.47
2022-08-11T12:32:29.632Z,44.31
2022-08-11T12:33:29.535Z,44.41
2022-08-11T12:34:29.534Z,44.11
2022-08-11T12:35:29.538Z,46.47
2022-08-11T12:36:29.549Z,47.16
2022-08-11T12:37:29.618Z,43.70
2022-08-11T12:38:29.887Z,42.98
2022-08-11T12:40:15.743Z,42.78
2022-08-11T12:40:43.607Z,44.05
2022-08-11T12:41:29.627Z,42.09
2022-08-11T12:42:29.578Z,43.75
2022-08-11T12:43:37.371Z,45.65
2022-08-11T12:44:29.594Z,47.14
2022-08-11T12:45:29.596Z,48.92
2022-08-11T12:46:29.593Z,46.45
2022-08-11T12:47:29.674Z,46.84
2022-08-11T12:48:57.655Z,48.55
2022-08-11T12:49:29.609Z,47.26
2022-08-11T12:50:29.616Z,48.25
2022-08-11T12:51:29.618Z,48.45
2022-08-11T12:52:29.625Z,48.97
2022-08-11T12:53:29.630Z,47.68
2022-08-11T12:54:29.634Z,46.69
2022-08-11T12:55:29.640Z,47.49
2022-08-11T12:56:29.645Z,47.58
2022-08-11T12:57:37.074Z,48.57
2022-08-11T12:58:29.663Z,46.09
2022-08-11T12:59:29.663Z,47.28
2022-08-11T13:00:29.668Z,47.31
2022-08-11T13:01:29.769Z,45.30
2022-08-11T13:02:29.681Z,47.38
2022-08-11T13:03:29.676Z,48.87
2022-08-11T13:04:29.685Z,44.73
2022-08-11T13:05:29.687Z,47.11
2022-08-11T13:06:29.694Z,47.50
2022-08-11T13:07:49.871Z,48.60
2022-08-11T13:08:29.823Z,45.12
2022-08-11T13:09:29.709Z,41.93
2022-08-11T13:10:29.717Z,42.78
2022-08-11T13:11:55.991Z,43.46
2022-08-11T13:12:29.842Z,41.97
2022-08-11T13:13:55.785Z,42.32
2022-08-11T13:14:29.743Z,44.31
2022-08-11T13:15:29.746Z,45.00
2022-08-11T13:16:29.743Z,44.90
2022-08-11T13:17:44.145Z,43.12
2022-08-11T13:18:29.756Z,43.63
2022-08-11T13:19:29.756Z,44.13
2022-08-11T13:20:29.764Z,45.71
2022-08-11T13:21:29.767Z,46.03
2022-08-11T13:22:29.851Z,41.18
2022-08-11T13:23:29.775Z,41.97
2022-08-11T13:24:29.784Z,42.07
2022-08-11T13:25:29.788Z,42.57
2022-08-11T13:26:47.394Z,44.94
2022-08-11T13:27:29.797Z,41.77
2022-08-11T13:28:29.802Z,40.66
2022-08-11T13:29:29.809Z,41.65
2022-08-11T13:30:29.813Z,40.64
2022-08-11T13:31:29.815Z,43.31
2022-08-11T13:32:29.825Z,41.44
2022-08-11T13:33:29.828Z,40.84
2022-08-11T13:34:29.835Z,39.95
2022-08-11T13:35:29.840Z,43.12
2022-08-11T13:36:29.852Z,41.04
2022-08-11T13:38:19.106Z,42.72
2022-08-11T13:38:30.029Z,40.45
2022-08-11T13:39:30.385Z,40.94
2022-08-11T13:40:45.868Z,40.05
2022-08-11T13:41:29.866Z,43.31
2022-08-11T13:42:29.872Z,42.80
2022-08-11T13:43:29.879Z,43.41
2022-08-11T13:44:29.911Z,43.61
2022-08-11T13:45:29.888Z,44.70
2022-08-11T13:46:29.894Z,46.80
2022-08-11T13:47:29.966Z,45.61
2022-08-11T13:48:29.907Z,43.83
2022-08-11T13:49:29.909Z,43.65
2022-08-11T13:50:29.916Z,44.94
2022-08-11T13:51:34.144Z,44.27
2022-08-11T13:52:29.923Z,41.89
2022-08-11T13:53:29.928Z,42.49
2022-08-11T13:54:29.932Z,43.57
2022-08-11T13:55:33.241Z,43.40
2022-08-11T13:56:29.952Z,44.76
2022-08-11T13:58:08.583Z,43.10
2022-08-11T13:58:39.700Z,44.19
2022-08-11T13:59:31.030Z,44.56
2022-08-11T14:00:29.974Z,45.68
2022-08-11T14:02:20.564Z,45.18
2022-08-11T14:02:30.856Z,43.20
2022-08-11T14:04:28.758Z,44.78
2022-08-11T14:04:32.290Z,44.98
2022-08-11T14:05:29.994Z,41.91
2022-08-11T14:06:29.997Z,43.79
2022-08-11T14:07:30.092Z,40.90
2022-08-11T14:08:37.072Z,43.77
2022-08-11T14:09:30.012Z,42.07
2022-08-11T14:10:30.039Z,43.95
2022-08-11T14:12:23.022Z,45.04
2022-08-11T14:12:30.028Z,42.76
2022-08-11T14:13:42.689Z,42.57
2022-08-11T14:14:30.038Z,39.97
2022-08-11T14:15:30.039Z,40.94
2022-08-11T14:16:30.087Z,43.71
2022-08-11T14:17:47.293Z,42.62
2022-08-11T14:18:30.062Z,44.52
2022-08-11T14:19:30.063Z,43.53
2022-08-11T14:20:38.693Z,43.24
2022-08-11T14:21:30.072Z,44.82
2022-08-11T14:22:30.079Z,45.63
2022-08-11T14:23:30.083Z,46.40
2022-08-11T14:24:30.089Z,45.34
2022-08-11T14:26:00.008Z,42.54
2022-08-11T14:26:30.100Z,42.64
2022-08-11T14:28:22.137Z,44.74
2022-08-11T14:28:34.462Z,45.83
2022-08-11T14:29:30.114Z,46.62
2022-08-11T14:30:30.128Z,46.62